sensor_id;sensor_type;location;lat;lon;timestamp;P1;durP1;ratioP1;P2;durP2;ratioP2
9880;SDS011;4979;51.014;6.678;2023-03-01T00:01:09;12.53;;;6.47;;
9880;SDS011;4979;51.014;6.678;2023-03-01T00:03:36;16.52;;;8.20;;
9880;SDS011;4979;51.014;6.678;2023-03-01T00:06:03;27.95;;;11.73;;
9880;SDS011;4979;51.014;6.678;2023-03-01T00:08:29;25.17;;;10.25;;
9880;SDS011;4979;51.014;6.678;2023-03-01T00:11:02;284.65;;;88.63;;
9880;SDS011;4979;51.014;6.678;2023-03-01T00:13:33;218.35;;;71.40;;
9880;SDS011;4979;51.014;6.678;2023-03-01T00:16:01;177.57;;;62.53;;
9880;SDS011;4979;51.014;6.678;2023-03-01T00:18:28;89.10;;;33.45;;
9880;SDS011;4979;51.014;6.678;2023-03-01T00:20:54;58.25;;;22.80;;
9880;SDS011;4979;51.014;6.678;2023-03-01T00:23:21;16.85;;;8.27;;
9880;SDS011;4979;51.014;6.678;2023-03-01T00:25:47;10.35;;;6.07;;
9880;SDS011;4979;51.014;6.678;2023-03-01T00:28:13;10.95;;;6.03;;
9880;SDS011;4979;51.014;6.678;2023-03-01T00:30:38;9.98;;;6.43;;
9880;SDS011;4979;51.014;6.678;2023-03-01T00:33:04;9.48;;;5.85;;
9880;SDS011;4979;51.014;6.678;2023-03-01T00:35:31;91.93;;;34.90;;
9880;SDS011;4979;51.014;6.678;2023-03-01T00:37:57;25.77;;;11.95;;
9880;SDS011;4979;51.014;6.678;2023-03-01T00:40:23;11.98;;;7.22;;
9880;SDS011;4979;51.014;6.678;2023-03-01T00:42:49;8.98;;;5.60;;
9880;SDS011;4979;51.014;6.678;2023-03-01T00:45:15;8.45;;;4.93;;
9880;SDS011;4979;51.014;6.678;2023-03-01T00:47:41;7.53;;;5.30;;
9880;SDS011;4979;51.014;6.678;2023-03-01T00:50:07;8.90;;;5.70;;
9880;SDS011;4979;51.014;6.678;2023-03-01T00:52:34;8.93;;;5.72;;
9880;SDS011;4979;51.014;6.678;2023-03-01T00:54:59;16.27;;;9.50;;
9880;SDS011;4979;51.014;6.678;2023-03-01T00:57:25;25.60;;;12.30;;
9880;SDS011;4979;51.014;6.678;2023-03-01T00:59:51;36.88;;;15.88;;
9880;SDS011;4979;51.014;6.678;2023-03-01T01:02:17;21.43;;;10.37;;
9880;SDS011;4979;51.014;6.678;2023-03-01T01:04:44;16.02;;;7.70;;
9880;SDS011;4979;51.014;6.678;2023-03-01T01:07:10;8.63;;;6.13;;
9880;SDS011;4979;51.014;6.678;2023-03-01T01:09:35;8.80;;;5.78;;
9880;SDS011;4979;51.014;6.678;2023-03-01T01:12:01;11.57;;;5.85;;
9880;SDS011;4979;51.014;6.678;2023-03-01T01:14:27;9.32;;;6.03;;
9880;SDS011;4979;51.014;6.678;2023-03-01T01:16:53;15.73;;;7.88;;
9880;SDS011;4979;51.014;6.678;2023-03-01T01:19:18;12.32;;;6.35;;
9880;SDS011;4979;51.014;6.678;2023-03-01T01:21:44;16.90;;;6.88;;
9880;SDS011;4979;51.014;6.678;2023-03-01T01:24:10;8.77;;;5.28;;
9880;SDS011;4979;51.014;6.678;2023-03-01T01:26:36;8.52;;;5.63;;
9880;SDS011;4979;51.014;6.678;2023-03-01T01:29:03;9.02;;;5.68;;
9880;SDS011;4979;51.014;6.678;2023-03-01T01:31:30;8.33;;;5.43;;
9880;SDS011;4979;51.014;6.678;2023-03-01T01:33:57;8.27;;;5.80;;
9880;SDS011;4979;51.014;6.678;2023-03-01T01:36:25;7.93;;;5.47;;
9880;SDS011;4979;51.014;6.678;2023-03-01T01:38:51;8.88;;;6.00;;
9880;SDS011;4979;51.014;6.678;2023-03-01T01:41:17;8.55;;;5.93;;
9880;SDS011;4979;51.014;6.678;2023-03-01T01:43:45;9.67;;;6.27;;
9880;SDS011;4979;51.014;6.678;2023-03-01T01:46:19;10.68;;;6.70;;
9880;SDS011;4979;51.014;6.678;2023-03-01T01:48:54;10.68;;;6.53;;
9880;SDS011;4979;51.014;6.678;2023-03-01T01:51:27;11.38;;;6.75;;
9880;SDS011;4979;51.014;6.678;2023-03-01T01:54:03;12.85;;;5.70;;
9880;SDS011;4979;51.014;6.678;2023-03-01T01:56:38;9.63;;;5.90;;
9880;SDS011;4979;51.014;6.678;2023-03-01T01:59:08;8.18;;;5.65;;
9880;SDS011;4979;51.014;6.678;2023-03-01T02:01:34;7.70;;;5.73;;
9880;SDS011;4979;51.014;6.678;2023-03-01T02:04:00;10.32;;;5.72;;
9880;SDS011;4979;51.014;6.678;2023-03-01T02:06:27;10.10;;;5.95;;
9880;SDS011;4979;51.014;6.678;2023-03-01T02:08:59;8.23;;;5.07;;
9880;SDS011;4979;51.014;6.678;2023-03-01T02:11:29;9.32;;;5.75;;
9880;SDS011;4979;51.014;6.678;2023-03-01T02:13:56;7.82;;;5.07;;
9880;SDS011;4979;51.014;6.678;2023-03-01T02:16:22;8.77;;;5.77;;
9880;SDS011;4979;51.014;6.678;2023-03-01T02:18:47;9.30;;;6.03;;
9880;SDS011;4979;51.014;6.678;2023-03-01T02:23:49;8.13;;;5.55;;
9880;SDS011;4979;51.014;6.678;2023-03-01T02:26:27;7.75;;;5.88;;
9880;SDS011;4979;51.014;6.678;2023-03-01T02:28:55;7.83;;;6.00;;
9880;SDS011;4979;51.014;6.678;2023-03-01T02:31:21;7.65;;;6.18;;
9880;SDS011;4979;51.014;6.678;2023-03-01T02:34:05;9.87;;;5.80;;
9880;SDS011;4979;51.014;6.678;2023-03-01T02:36:35;8.27;;;6.00;;
9880;SDS011;4979;51.014;6.678;2023-03-01T02:39:03;9.37;;;5.77;;
9880;SDS011;4979;51.014;6.678;2023-03-01T02:41:32;8.57;;;6.25;;
9880;SDS011;4979;51.014;6.678;2023-03-01T02:44:02;10.45;;;6.47;;
9880;SDS011;4979;51.014;6.678;2023-03-01T02:46:28;9.17;;;5.83;;
9880;SDS011;4979;51.014;6.678;2023-03-01T02:48:55;13.83;;;7.17;;
9880;SDS011;4979;51.014;6.678;2023-03-01T02:51:25;9.85;;;6.25;;
9880;SDS011;4979;51.014;6.678;2023-03-01T02:54:20;10.00;;;6.13;;
9880;SDS011;4979;51.014;6.678;2023-03-01T02:56:51;9.73;;;6.72;;
9880;SDS011;4979;51.014;6.678;2023-03-01T02:59:18;10.52;;;6.38;;
9880;SDS011;4979;51.014;6.678;2023-03-01T03:01:45;9.17;;;6.17;;
9880;SDS011;4979;51.014;6.678;2023-03-01T03:04:13;9.70;;;6.13;;
9880;SDS011;4979;51.014;6.678;2023-03-01T03:06:41;9.23;;;6.03;;
9880;SDS011;4979;51.014;6.678;2023-03-01T03:09:08;11.13;;;6.27;;
9880;SDS011;4979;51.014;6.678;2023-03-01T03:11:33;12.57;;;6.47;;
9880;SDS011;4979;51.014;6.678;2023-03-01T03:13:59;9.30;;;6.23;;
9880;SDS011;4979;51.014;6.678;2023-03-01T03:16:24;8.33;;;5.80;;
9880;SDS011;4979;51.014;6.678;2023-03-01T03:18:50;11.30;;;6.47;;
9880;SDS011;4979;51.014;6.678;2023-03-01T03:21:16;9.97;;;6.50;;
9880;SDS011;4979;51.014;6.678;2023-03-01T03:23:42;11.20;;;6.45;;
9880;SDS011;4979;51.014;6.678;2023-03-01T03:26:08;10.93;;;6.67;;
9880;SDS011;4979;51.014;6.678;2023-03-01T03:28:34;8.37;;;5.77;;
9880;SDS011;4979;51.014;6.678;2023-03-01T03:31:00;10.53;;;6.33;;
9880;SDS011;4979;51.014;6.678;2023-03-01T03:33:29;8.70;;;5.90;;
9880;SDS011;4979;51.014;6.678;2023-03-01T03:35:56;8.93;;;6.67;;
9880;SDS011;4979;51.014;6.678;2023-03-01T03:38:21;9.10;;;6.50;;
9880;SDS011;4979;51.014;6.678;2023-03-01T03:40:48;11.53;;;6.40;;
9880;SDS011;4979;51.014;6.678;2023-03-01T03:43:21;9.47;;;6.03;;
9880;SDS011;4979;51.014;6.678;2023-03-01T03:45:48;11.98;;;7.28;;
9880;SDS011;4979;51.014;6.678;2023-03-01T03:48:15;10.57;;;6.63;;
9880;SDS011;4979;51.014;6.678;2023-03-01T03:50:41;15.27;;;6.60;;
9880;SDS011;4979;51.014;6.678;2023-03-01T03:53:12;8.85;;;6.35;;
9880;SDS011;4979;51.014;6.678;2023-03-01T03:55:37;10.50;;;6.73;;
9880;SDS011;4979;51.014;6.678;2023-03-01T03:58:08;8.97;;;6.10;;
9880;SDS011;4979;51.014;6.678;2023-03-01T04:00:35;8.20;;;6.33;;
9880;SDS011;4979;51.014;6.678;2023-03-01T04:03:12;10.27;;;6.60;;
9880;SDS011;4979;51.014;6.678;2023-03-01T04:05:40;11.40;;;6.63;;
9880;SDS011;4979;51.014;6.678;2023-03-01T04:08:06;13.23;;;6.83;;
9880;SDS011;4979;51.014;6.678;2023-03-01T04:10:33;9.33;;;6.03;;
9880;SDS011;4979;51.014;6.678;2023-03-01T04:13:02;11.47;;;7.13;;
9880;SDS011;4979;51.014;6.678;2023-03-01T04:15:28;13.48;;;6.80;;
9880;SDS011;4979;51.014;6.678;2023-03-01T04:17:55;11.48;;;6.85;;
9880;SDS011;4979;51.014;6.678;2023-03-01T04:20:22;13.20;;;6.83;;
9880;SDS011;4979;51.014;6.678;2023-03-01T04:22:50;10.20;;;6.67;;
9880;SDS011;4979;51.014;6.678;2023-03-01T04:25:25;13.20;;;6.60;;
9880;SDS011;4979;51.014;6.678;2023-03-01T04:27:51;11.50;;;7.10;;
9880;SDS011;4979;51.014;6.678;2023-03-01T04:30:17;16.40;;;6.97;;
9880;SDS011;4979;51.014;6.678;2023-03-01T04:32:42;11.63;;;6.95;;
9880;SDS011;4979;51.014;6.678;2023-03-01T04:35:08;10.07;;;6.57;;
9880;SDS011;4979;51.014;6.678;2023-03-01T04:37:34;16.33;;;7.27;;
9880;SDS011;4979;51.014;6.678;2023-03-01T04:40:00;11.35;;;7.18;;
9880;SDS011;4979;51.014;6.678;2023-03-01T04:42:26;11.57;;;7.13;;
9880;SDS011;4979;51.014;6.678;2023-03-01T04:44:51;13.17;;;7.70;;
9880;SDS011;4979;51.014;6.678;2023-03-01T04:47:17;12.77;;;6.70;;
9880;SDS011;4979;51.014;6.678;2023-03-01T04:49:43;9.30;;;6.97;;
9880;SDS011;4979;51.014;6.678;2023-03-01T04:52:08;14.10;;;7.13;;
9880;SDS011;4979;51.014;6.678;2023-03-01T04:54:34;11.27;;;6.87;;
9880;SDS011;4979;51.014;6.678;2023-03-01T04:57:01;14.53;;;7.23;;
9880;SDS011;4979;51.014;6.678;2023-03-01T04:59:27;12.90;;;7.37;;
9880;SDS011;4979;51.014;6.678;2023-03-01T05:01:54;12.53;;;6.70;;
9880;SDS011;4979;51.014;6.678;2023-03-01T05:04:21;30.17;;;22.00;;
9880;SDS011;4979;51.014;6.678;2023-03-01T05:06:47;11.40;;;8.75;;
9880;SDS011;4979;51.014;6.678;2023-03-01T05:09:12;11.17;;;7.30;;
9880;SDS011;4979;51.014;6.678;2023-03-01T05:11:38;12.33;;;7.03;;
9880;SDS011;4979;51.014;6.678;2023-03-01T05:14:04;12.87;;;6.67;;
9880;SDS011;4979;51.014;6.678;2023-03-01T05:16:31;10.97;;;7.33;;
9880;SDS011;4979;51.014;6.678;2023-03-01T05:18:58;12.37;;;7.27;;
9880;SDS011;4979;51.014;6.678;2023-03-01T05:21:24;16.60;;;7.23;;
9880;SDS011;4979;51.014;6.678;2023-03-01T05:23:50;13.50;;;7.00;;
9880;SDS011;4979;51.014;6.678;2023-03-01T05:26:16;11.73;;;6.87;;
9880;SDS011;4979;51.014;6.678;2023-03-01T05:28:44;13.77;;;7.53;;
9880;SDS011;4979;51.014;6.678;2023-03-01T05:31:09;14.60;;;7.60;;
9880;SDS011;4979;51.014;6.678;2023-03-01T05:33:38;11.30;;;6.80;;
9880;SDS011;4979;51.014;6.678;2023-03-01T05:36:05;14.90;;;7.50;;
9880;SDS011;4979;51.014;6.678;2023-03-01T05:38:35;13.20;;;7.63;;
9880;SDS011;4979;51.014;6.678;2023-03-01T05:41:01;13.50;;;7.43;;
9880;SDS011;4979;51.014;6.678;2023-03-01T05:43:29;13.60;;;8.47;;
9880;SDS011;4979;51.014;6.678;2023-03-01T05:45:58;13.95;;;7.85;;
9880;SDS011;4979;51.014;6.678;2023-03-01T05:48:24;13.60;;;7.23;;
9880;SDS011;4979;51.014;6.678;2023-03-01T05:50:50;14.53;;;8.87;;
9880;SDS011;4979;51.014;6.678;2023-03-01T05:53:17;14.50;;;7.40;;
9880;SDS011;4979;51.014;6.678;2023-03-01T05:55:48;12.57;;;7.40;;
9880;SDS011;4979;51.014;6.678;2023-03-01T05:58:15;10.48;;;7.55;;
9880;SDS011;4979;51.014;6.678;2023-03-01T06:00:44;12.73;;;7.23;;
9880;SDS011;4979;51.014;6.678;2023-03-01T06:03:11;15.40;;;7.47;;
9880;SDS011;4979;51.014;6.678;2023-03-01T06:05:38;17.50;;;7.77;;
9880;SDS011;4979;51.014;6.678;2023-03-01T06:08:04;14.18;;;8.15;;
9880;SDS011;4979;51.014;6.678;2023-03-01T06:10:30;12.83;;;7.80;;
9880;SDS011;4979;51.014;6.678;2023-03-01T06:12:56;8.63;;;7.27;;
9880;SDS011;4979;51.014;6.678;2023-03-01T06:15:22;14.03;;;7.67;;
9880;SDS011;4979;51.014;6.678;2023-03-01T06:17:48;16.60;;;7.70;;
9880;SDS011;4979;51.014;6.678;2023-03-01T06:20:15;11.87;;;7.27;;
9880;SDS011;4979;51.014;6.678;2023-03-01T06:22:45;11.80;;;7.27;;
9880;SDS011;4979;51.014;6.678;2023-03-01T06:25:12;12.77;;;7.23;;
9880;SDS011;4979;51.014;6.678;2023-03-01T06:27:39;15.07;;;8.13;;
9880;SDS011;4979;51.014;6.678;2023-03-01T06:30:05;12.07;;;7.67;;
9880;SDS011;4979;51.014;6.678;2023-03-01T06:32:32;16.70;;;8.70;;
9880;SDS011;4979;51.014;6.678;2023-03-01T06:34:58;12.87;;;8.03;;
9880;SDS011;4979;51.014;6.678;2023-03-01T06:37:24;12.73;;;6.63;;
9880;SDS011;4979;51.014;6.678;2023-03-01T06:39:50;12.13;;;7.27;;
9880;SDS011;4979;51.014;6.678;2023-03-01T06:42:16;12.77;;;8.63;;
9880;SDS011;4979;51.014;6.678;2023-03-01T06:44:41;16.70;;;8.07;;
9880;SDS011;4979;51.014;6.678;2023-03-01T06:47:07;15.10;;;7.50;;
9880;SDS011;4979;51.014;6.678;2023-03-01T06:49:32;13.90;;;8.02;;
9880;SDS011;4979;51.014;6.678;2023-03-01T06:51:58;15.23;;;8.20;;
9880;SDS011;4979;51.014;6.678;2023-03-01T06:54:24;13.55;;;8.27;;
9880;SDS011;4979;51.014;6.678;2023-03-01T06:56:49;17.00;;;8.30;;
9880;SDS011;4979;51.014;6.678;2023-03-01T06:59:15;11.80;;;8.07;;
9880;SDS011;4979;51.014;6.678;2023-03-01T07:01:41;15.13;;;8.17;;
9880;SDS011;4979;51.014;6.678;2023-03-01T07:04:08;11.67;;;8.10;;
9880;SDS011;4979;51.014;6.678;2023-03-01T07:06:34;12.93;;;8.67;;
9880;SDS011;4979;51.014;6.678;2023-03-01T07:09:00;10.80;;;7.53;;
9880;SDS011;4979;51.014;6.678;2023-03-01T07:11:25;13.57;;;7.57;;
9880;SDS011;4979;51.014;6.678;2023-03-01T07:13:51;13.53;;;8.27;;
9880;SDS011;4979;51.014;6.678;2023-03-01T07:16:16;13.40;;;8.63;;
9880;SDS011;4979;51.014;6.678;2023-03-01T07:18:42;17.03;;;8.20;;
9880;SDS011;4979;51.014;6.678;2023-03-01T07:21:08;11.27;;;8.50;;
9880;SDS011;4979;51.014;6.678;2023-03-01T07:23:36;16.30;;;9.63;;
9880;SDS011;4979;51.014;6.678;2023-03-01T07:26:02;14.27;;;9.23;;
9880;SDS011;4979;51.014;6.678;2023-03-01T07:28:28;14.27;;;8.70;;
9880;SDS011;4979;51.014;6.678;2023-03-01T07:30:54;17.67;;;9.00;;
9880;SDS011;4979;51.014;6.678;2023-03-01T07:33:20;13.43;;;9.17;;
9880;SDS011;4979;51.014;6.678;2023-03-01T07:35:45;17.98;;;9.55;;
9880;SDS011;4979;51.014;6.678;2023-03-01T07:38:11;13.70;;;9.18;;
9880;SDS011;4979;51.014;6.678;2023-03-01T07:40:37;15.87;;;9.43;;
9880;SDS011;4979;51.014;6.678;2023-03-01T07:43:02;14.38;;;9.40;;
9880;SDS011;4979;51.014;6.678;2023-03-01T07:45:28;16.35;;;9.20;;
9880;SDS011;4979;51.014;6.678;2023-03-01T07:47:54;16.27;;;9.38;;
9880;SDS011;4979;51.014;6.678;2023-03-01T07:50:21;12.90;;;9.13;;
9880;SDS011;4979;51.014;6.678;2023-03-01T07:52:47;18.35;;;9.68;;
9880;SDS011;4979;51.014;6.678;2023-03-01T07:55:14;13.13;;;9.00;;
9880;SDS011;4979;51.014;6.678;2023-03-01T07:57:40;19.65;;;9.77;;
9880;SDS011;4979;51.014;6.678;2023-03-01T08:00:06;16.05;;;9.75;;
9880;SDS011;4979;51.014;6.678;2023-03-01T08:02:32;15.85;;;10.40;;
9880;SDS011;4979;51.014;6.678;2023-03-01T08:04:58;17.88;;;9.43;;
9880;SDS011;4979;51.014;6.678;2023-03-01T08:07:24;13.95;;;10.15;;
9880;SDS011;4979;51.014;6.678;2023-03-01T08:09:49;13.70;;;8.93;;
9880;SDS011;4979;51.014;6.678;2023-03-01T08:12:15;18.27;;;9.77;;
9880;SDS011;4979;51.014;6.678;2023-03-01T08:14:43;14.95;;;9.70;;
9880;SDS011;4979;51.014;6.678;2023-03-01T08:17:09;15.40;;;9.10;;
9880;SDS011;4979;51.014;6.678;2023-03-01T08:19:35;13.57;;;9.45;;
9880;SDS011;4979;51.014;6.678;2023-03-01T08:22:03;14.25;;;9.52;;
9880;SDS011;4979;51.014;6.678;2023-03-01T08:24:29;17.67;;;11.32;;
9880;SDS011;4979;51.014;6.678;2023-03-01T08:26:54;15.95;;;10.13;;
9880;SDS011;4979;51.014;6.678;2023-03-01T08:29:20;13.13;;;9.57;;
9880;SDS011;4979;51.014;6.678;2023-03-01T08:31:46;16.58;;;9.68;;
9880;SDS011;4979;51.014;6.678;2023-03-01T08:34:13;17.45;;;8.60;;
9880;SDS011;4979;51.014;6.678;2023-03-01T08:36:41;17.77;;;9.48;;
9880;SDS011;4979;51.014;6.678;2023-03-01T08:39:10;14.75;;;9.02;;
9880;SDS011;4979;51.014;6.678;2023-03-01T08:41:37;12.57;;;8.98;;
9880;SDS011;4979;51.014;6.678;2023-03-01T08:44:04;14.65;;;9.15;;
9880;SDS011;4979;51.014;6.678;2023-03-01T08:46:36;14.82;;;8.18;;
9880;SDS011;4979;51.014;6.678;2023-03-01T08:49:04;13.32;;;9.75;;
9880;SDS011;4979;51.014;6.678;2023-03-01T08:51:30;14.98;;;9.20;;
9880;SDS011;4979;51.014;6.678;2023-03-01T08:54:01;14.30;;;8.68;;
9880;SDS011;4979;51.014;6.678;2023-03-01T08:56:31;12.30;;;8.80;;
9880;SDS011;4979;51.014;6.678;2023-03-01T08:58:56;13.35;;;9.30;;
9880;SDS011;4979;51.014;6.678;2023-03-01T09:01:22;11.75;;;8.38;;
9880;SDS011;4979;51.014;6.678;2023-03-01T09:03:48;13.98;;;9.65;;
9880;SDS011;4979;51.014;6.678;2023-03-01T09:06:24;12.32;;;7.18;;
9880;SDS011;4979;51.014;6.678;2023-03-01T09:08:50;15.52;;;9.05;;
9880;SDS011;4979;51.014;6.678;2023-03-01T09:11:19;12.10;;;9.02;;
9880;SDS011;4979;51.014;6.678;2023-03-01T09:13:46;13.38;;;9.07;;
9880;SDS011;4979;51.014;6.678;2023-03-01T09:16:14;14.15;;;9.43;;
9880;SDS011;4979;51.014;6.678;2023-03-01T09:18:41;16.58;;;11.90;;
9880;SDS011;4979;51.014;6.678;2023-03-01T09:23:44;15.57;;;9.68;;
9880;SDS011;4979;51.014;6.678;2023-03-01T09:26:13;14.73;;;9.20;;
9880;SDS011;4979;51.014;6.678;2023-03-01T09:28:44;18.65;;;9.30;;
9880;SDS011;4979;51.014;6.678;2023-03-01T09:31:10;12.90;;;9.15;;
9880;SDS011;4979;51.014;6.678;2023-03-01T09:33:40;15.30;;;9.52;;
9880;SDS011;4979;51.014;6.678;2023-03-01T09:36:07;16.27;;;9.25;;
9880;SDS011;4979;51.014;6.678;2023-03-01T09:38:38;13.88;;;9.25;;
9880;SDS011;4979;51.014;6.678;2023-03-01T09:41:09;15.55;;;9.57;;
9880;SDS011;4979;51.014;6.678;2023-03-01T09:44:31;15.45;;;10.00;;
9880;SDS011;4979;51.014;6.678;2023-03-01T09:46:53;13.25;;;8.48;;
9880;SDS011;4979;51.014;6.678;2023-03-01T09:49:19;18.35;;;10.05;;
9880;SDS011;4979;51.014;6.678;2023-03-01T09:51:55;12.02;;;9.38;;
9880;SDS011;4979;51.014;6.678;2023-03-01T09:54:28;12.40;;;8.00;;
9880;SDS011;4979;51.014;6.678;2023-03-01T09:56:57;12.52;;;9.02;;
9880;SDS011;4979;51.014;6.678;2023-03-01T09:59:57;12.18;;;7.80;;
9880;SDS011;4979;51.014;6.678;2023-03-01T10:05:03;14.18;;;9.15;;
9880;SDS011;4979;51.014;6.678;2023-03-01T10:10:32;27.58;;;15.07;;
9880;SDS011;4979;51.014;6.678;2023-03-01T10:13:17;18.05;;;10.70;;
9880;SDS011;4979;51.014;6.678;2023-03-01T10:15:55;45.15;;;24.85;;
9880;SDS011;4979;51.014;6.678;2023-03-01T10:18:26;12.10;;;8.65;;
9880;SDS011;4979;51.014;6.678;2023-03-01T10:21:00;25.02;;;11.13;;
9880;SDS011;4979;51.014;6.678;2023-03-01T10:23:30;20.77;;;12.90;;
9880;SDS011;4979;51.014;6.678;2023-03-01T10:31:23;12.70;;;7.63;;
9880;SDS011;4979;51.014;6.678;2023-03-01T10:34:02;19.17;;;9.85;;
9880;SDS011;4979;51.014;6.678;2023-03-01T10:36:29;15.82;;;8.95;;
9880;SDS011;4979;51.014;6.678;2023-03-01T10:38:58;31.95;;;16.77;;
9880;SDS011;4979;51.014;6.678;2023-03-01T10:41:25;19.08;;;11.32;;
9880;SDS011;4979;51.014;6.678;2023-03-01T10:43:53;19.00;;;10.55;;
9880;SDS011;4979;51.014;6.678;2023-03-01T10:51:44;26.52;;;14.18;;
9880;SDS011;4979;51.014;6.678;2023-03-01T10:54:16;18.02;;;12.48;;
9880;SDS011;4979;51.014;6.678;2023-03-01T10:56:48;14.98;;;8.43;;
9880;SDS011;4979;51.014;6.678;2023-03-01T10:59:34;25.10;;;14.38;;
9880;SDS011;4979;51.014;6.678;2023-03-01T11:04:38;16.38;;;9.30;;
9880;SDS011;4979;51.014;6.678;2023-03-01T11:07:04;14.05;;;7.88;;
9880;SDS011;4979;51.014;6.678;2023-03-01T11:09:33;15.63;;;9.23;;
9880;SDS011;4979;51.014;6.678;2023-03-01T11:12:05;25.08;;;14.07;;
9880;SDS011;4979;51.014;6.678;2023-03-01T11:14:51;21.33;;;13.70;;
9880;SDS011;4979;51.014;6.678;2023-03-01T11:17:29;12.38;;;7.57;;
9880;SDS011;4979;51.014;6.678;2023-03-01T11:20:14;9.60;;;6.93;;
9880;SDS011;4979;51.014;6.678;2023-03-01T11:22:55;20.30;;;12.73;;
9880;SDS011;4979;51.014;6.678;2023-03-01T11:25:29;15.35;;;8.32;;
9880;SDS011;4979;51.014;6.678;2023-03-01T11:28:00;13.32;;;7.70;;
9880;SDS011;4979;51.014;6.678;2023-03-01T11:30:32;15.98;;;10.07;;
9880;SDS011;4979;51.014;6.678;2023-03-01T11:36:01;8.77;;;7.18;;
9880;SDS011;4979;51.014;6.678;2023-03-01T11:38:51;9.40;;;6.45;;
9880;SDS011;4979;51.014;6.678;2023-03-01T11:41:19;23.27;;;12.55;;
9880;SDS011;4979;51.014;6.678;2023-03-01T11:43:56;13.82;;;8.90;;
9880;SDS011;4979;51.014;6.678;2023-03-01T11:49:13;12.10;;;7.53;;
9880;SDS011;4979;51.014;6.678;2023-03-01T11:51:49;11.20;;;7.60;;
9880;SDS011;4979;51.014;6.678;2023-03-01T11:54:25;13.98;;;8.80;;
9880;SDS011;4979;51.014;6.678;2023-03-01T11:59:55;11.90;;;6.75;;
9880;SDS011;4979;51.014;6.678;2023-03-01T12:05:17;17.75;;;9.18;;
9880;SDS011;4979;51.014;6.678;2023-03-01T12:10:37;10.45;;;7.88;;
9880;SDS011;4979;51.014;6.678;2023-03-01T12:19:08;11.30;;;8.32;;
9880;SDS011;4979;51.014;6.678;2023-03-01T12:24:36;13.43;;;7.70;;
9880;SDS011;4979;51.014;6.678;2023-03-01T12:27:50;10.65;;;7.63;;
9880;SDS011;4979;51.014;6.678;2023-03-01T12:35:54;12.35;;;8.65;;
9880;SDS011;4979;51.014;6.678;2023-03-01T12:38:45;8.55;;;5.82;;
9880;SDS011;4979;51.014;6.678;2023-03-01T12:41:26;9.85;;;5.93;;
9880;SDS011;4979;51.014;6.678;2023-03-01T12:47:20;9.10;;;7.63;;
9880;SDS011;4979;51.014;6.678;2023-03-01T12:50:24;9.98;;;7.13;;
9880;SDS011;4979;51.014;6.678;2023-03-01T12:52:57;10.15;;;6.55;;
9880;SDS011;4979;51.014;6.678;2023-03-01T13:04:02;12.02;;;7.38;;
9880;SDS011;4979;51.014;6.678;2023-03-01T13:09:40;12.25;;;7.47;;
9880;SDS011;4979;51.014;6.678;2023-03-01T13:17:47;13.32;;;8.60;;
9880;SDS011;4979;51.014;6.678;2023-03-01T13:20:15;10.85;;;8.05;;
9880;SDS011;4979;51.014;6.678;2023-03-01T13:22:43;11.02;;;7.70;;
9880;SDS011;4979;51.014;6.678;2023-03-01T13:25:18;13.85;;;7.32;;
9880;SDS011;4979;51.014;6.678;2023-03-01T13:27:45;8.60;;;6.82;;
9880;SDS011;4979;51.014;6.678;2023-03-01T13:35:55;12.25;;;8.32;;
9880;SDS011;4979;51.014;6.678;2023-03-01T13:41:06;9.60;;;6.85;;
9880;SDS011;4979;51.014;6.678;2023-03-01T13:43:34;10.98;;;7.20;;
9880;SDS011;4979;51.014;6.678;2023-03-01T13:46:01;7.75;;;5.90;;
9880;SDS011;4979;51.014;6.678;2023-03-01T13:48:44;9.95;;;5.50;;
9880;SDS011;4979;51.014;6.678;2023-03-01T13:51:12;7.80;;;5.90;;
9880;SDS011;4979;51.014;6.678;2023-03-01T13:53:45;11.70;;;7.05;;
9880;SDS011;4979;51.014;6.678;2023-03-01T13:59:12;11.00;;;5.47;;
9880;SDS011;4979;51.014;6.678;2023-03-01T14:01:40;8.65;;;5.38;;
9880;SDS011;4979;51.014;6.678;2023-03-01T14:04:22;13.57;;;6.43;;
9880;SDS011;4979;51.014;6.678;2023-03-01T14:06:51;10.00;;;6.43;;
9880;SDS011;4979;51.014;6.678;2023-03-01T14:09:48;9.85;;;6.47;;
9880;SDS011;4979;51.014;6.678;2023-03-01T14:15:34;10.20;;;6.05;;
9880;SDS011;4979;51.014;6.678;2023-03-01T14:18:09;7.03;;;5.35;;
9880;SDS011;4979;51.014;6.678;2023-03-01T14:20:46;8.38;;;6.03;;
9880;SDS011;4979;51.014;6.678;2023-03-01T14:23:17;7.85;;;6.38;;
9880;SDS011;4979;51.014;6.678;2023-03-01T14:25:52;11.43;;;6.43;;
9880;SDS011;4979;51.014;6.678;2023-03-01T14:28:31;10.10;;;5.22;;
9880;SDS011;4979;51.014;6.678;2023-03-01T14:31:02;9.27;;;6.00;;
9880;SDS011;4979;51.014;6.678;2023-03-01T14:33:34;12.25;;;6.43;;
9880;SDS011;4979;51.014;6.678;2023-03-01T14:36:05;8.90;;;5.47;;
9880;SDS011;4979;51.014;6.678;2023-03-01T14:43:47;10.10;;;5.80;;
9880;SDS011;4979;51.014;6.678;2023-03-01T14:46:24;10.15;;;4.43;;
9880;SDS011;4979;51.014;6.678;2023-03-01T14:51:41;10.93;;;6.60;;
9880;SDS011;4979;51.014;6.678;2023-03-01T14:54:19;8.20;;;4.95;;
9880;SDS011;4979;51.014;6.678;2023-03-01T14:56:46;7.72;;;5.43;;
9880;SDS011;4979;51.014;6.678;2023-03-01T14:59:12;8.00;;;5.60;;
9880;SDS011;4979;51.014;6.678;2023-03-01T15:01:38;7.13;;;5.47;;
9880;SDS011;4979;51.014;6.678;2023-03-01T15:04:06;9.27;;;5.45;;
9880;SDS011;4979;51.014;6.678;2023-03-01T15:06:35;8.02;;;5.32;;
9880;SDS011;4979;51.014;6.678;2023-03-01T15:09:02;10.02;;;5.05;;
9880;SDS011;4979;51.014;6.678;2023-03-01T15:11:32;11.13;;;6.40;;
9880;SDS011;4979;51.014;6.678;2023-03-01T15:13:58;11.23;;;5.63;;
9880;SDS011;4979;51.014;6.678;2023-03-01T15:18:51;7.28;;;5.05;;
9880;SDS011;4979;51.014;6.678;2023-03-01T15:21:23;7.70;;;4.15;;
9880;SDS011;4979;51.014;6.678;2023-03-01T15:26:45;9.25;;;6.13;;
9880;SDS011;4979;51.014;6.678;2023-03-01T15:29:23;7.35;;;5.18;;
9880;SDS011;4979;51.014;6.678;2023-03-01T15:31:58;6.20;;;5.30;;
9880;SDS011;4979;51.014;6.678;2023-03-01T15:34:30;9.10;;;5.78;;
9880;SDS011;4979;51.014;6.678;2023-03-01T15:36:59;8.63;;;6.18;;
9880;SDS011;4979;51.014;6.678;2023-03-01T15:45:07;8.23;;;5.45;;
9880;SDS011;4979;51.014;6.678;2023-03-01T15:47:32;7.60;;;5.13;;
9880;SDS011;4979;51.014;6.678;2023-03-01T15:50:00;8.13;;;4.53;;
9880;SDS011;4979;51.014;6.678;2023-03-01T15:52:30;8.32;;;5.03;;
9880;SDS011;4979;51.014;6.678;2023-03-01T15:55:02;14.88;;;5.85;;
9880;SDS011;4979;51.014;6.678;2023-03-01T15:57:31;8.30;;;4.88;;
9880;SDS011;4979;51.014;6.678;2023-03-01T15:59:57;7.90;;;4.95;;
9880;SDS011;4979;51.014;6.678;2023-03-01T16:02:23;11.02;;;5.63;;
9880;SDS011;4979;51.014;6.678;2023-03-01T16:04:49;7.57;;;5.38;;
9880;SDS011;4979;51.014;6.678;2023-03-01T16:07:15;10.25;;;5.93;;
9880;SDS011;4979;51.014;6.678;2023-03-01T16:09:41;9.07;;;5.82;;
9880;SDS011;4979;51.014;6.678;2023-03-01T16:12:11;8.65;;;4.90;;
9880;SDS011;4979;51.014;6.678;2023-03-01T16:14:39;8.13;;;5.07;;
9880;SDS011;4979;51.014;6.678;2023-03-01T16:17:05;6.78;;;4.35;;
9880;SDS011;4979;51.014;6.678;2023-03-01T16:19:33;9.13;;;5.32;;
9880;SDS011;4979;51.014;6.678;2023-03-01T16:21:58;7.20;;;4.15;;
9880;SDS011;4979;51.014;6.678;2023-03-01T16:24:24;5.90;;;4.63;;
9880;SDS011;4979;51.014;6.678;2023-03-01T16:26:50;10.60;;;4.95;;
9880;SDS011;4979;51.014;6.678;2023-03-01T16:29:16;8.27;;;5.32;;
9880;SDS011;4979;51.014;6.678;2023-03-01T16:31:42;9.10;;;5.28;;
9880;SDS011;4979;51.014;6.678;2023-03-01T16:34:07;8.40;;;5.00;;
9880;SDS011;4979;51.014;6.678;2023-03-01T16:36:33;8.23;;;5.05;;
9880;SDS011;4979;51.014;6.678;2023-03-01T16:38:58;10.77;;;5.15;;
9880;SDS011;4979;51.014;6.678;2023-03-01T16:41:25;8.85;;;5.20;;
9880;SDS011;4979;51.014;6.678;2023-03-01T16:43:52;9.15;;;4.88;;
9880;SDS011;4979;51.014;6.678;2023-03-01T16:46:27;8.23;;;4.30;;
9880;SDS011;4979;51.014;6.678;2023-03-01T16:48:54;6.47;;;4.43;;
9880;SDS011;4979;51.014;6.678;2023-03-01T16:51:20;7.63;;;4.95;;
9880;SDS011;4979;51.014;6.678;2023-03-01T16:53:47;7.63;;;4.28;;
9880;SDS011;4979;51.014;6.678;2023-03-01T16:56:14;9.45;;;3.88;;
9880;SDS011;4979;51.014;6.678;2023-03-01T16:58:41;8.52;;;5.40;;
9880;SDS011;4979;51.014;6.678;2023-03-01T17:01:09;8.18;;;5.10;;
9880;SDS011;4979;51.014;6.678;2023-03-01T17:03:35;6.82;;;5.05;;